Uniontown, Washington
Current Conditions -  °F | °C
As of 3:56 PM on Saturday 25 Oct 2014 (Local Time) from KLWS Reporting Station
Clear Clear  
Wind Chill: 68°   Ceiling: Unl
Heat Index: 68°   Visibility: 10mi
Dew Point: 48°   Wind: 9mph
Humidity: 49%   Direction: 70°ENE
Pressure: 29.53"   Gusts: NA
Location:  46.54°N, 117.09°W
Report Text: KLWS 252256Z AUTO 07008KT 10SM CLR 20/09 A2953 RMK AO2 RAB06E17 SLP997 P0000 T02000089
Loading
Personal Weather Stations






























Interactive Weather Map
Tropical Storm Tracking
New forecast layout! Learn more

10-Day Weather Forecast

Advertisements
Track Severe Weather on mobile